sensor_id;sensor_type;location;lat;lon;timestamp;temperature;humidity
20380;DHT22;10349;48.666;8.948;2022-12-18T00:00:06;-12.40;99.90
20380;DHT22;10349;48.666;8.948;2022-12-18T00:02:39;-12.40;99.90
20380;DHT22;10349;48.666;8.948;2022-12-18T00:05:05;-12.30;99.90
20380;DHT22;10349;48.666;8.948;2022-12-18T00:07:31;-12.30;99.90
20380;DHT22;10349;48.666;8.948;2022-12-18T00:09:56;-12.30;99.90
20380;DHT22;10349;48.666;8.948;2022-12-18T00:12:22;-12.30;99.90
20380;DHT22;10349;48.666;8.948;2022-12-18T00:14:47;-12.40;99.90
20380;DHT22;10349;48.666;8.948;2022-12-18T00:17:13;-12.40;99.90
20380;DHT22;10349;48.666;8.948;2022-12-18T00:19:39;-12.40;99.90
20380;DHT22;10349;48.666;8.948;2022-12-18T00:22:04;-12.40;99.90
20380;DHT22;10349;48.666;8.948;2022-12-18T00:24:31;-12.50;99.90
20380;DHT22;10349;48.666;8.948;2022-12-18T00:26:57;-12.50;99.90
20380;DHT22;10349;48.666;8.948;2022-12-18T00:29:23;-12.50;99.90
20380;DHT22;10349;48.666;8.948;2022-12-18T00:31:48;-12.70;99.90
20380;DHT22;10349;48.666;8.948;2022-12-18T00:34:14;-12.70;99.90
20380;DHT22;10349;48.666;8.948;2022-12-18T00:36:40;-12.70;99.90
20380;DHT22;10349;48.666;8.948;2022-12-18T00:39:06;-12.70;99.90
20380;DHT22;10349;48.666;8.948;2022-12-18T00:41:32;-12.70;99.90
20380;DHT22;10349;48.666;8.948;2022-12-18T00:44:18;-12.80;99.90
20380;DHT22;10349;48.666;8.948;2022-12-18T00:46:45;-12.70;99.90
20380;DHT22;10349;48.666;8.948;2022-12-18T00:49:11;-12.70;99.90
20380;DHT22;10349;48.666;8.948;2022-12-18T00:51:39;-12.80;99.90
20380;DHT22;10349;48.666;8.948;2022-12-18T00:54:04;-12.90;99.90
20380;DHT22;10349;48.666;8.948;2022-12-18T00:56:30;-12.80;99.90
20380;DHT22;10349;48.666;8.948;2022-12-18T00:58:56;-12.80;99.90
20380;DHT22;10349;48.666;8.948;2022-12-18T01:01:22;-12.70;99.90
20380;DHT22;10349;48.666;8.948;2022-12-18T01:03:48;-12.70;99.90
20380;DHT22;10349;48.666;8.948;2022-12-18T01:06:15;-12.70;99.90
20380;DHT22;10349;48.666;8.948;2022-12-18T01:08:43;-12.80;99.90
20380;DHT22;10349;48.666;8.948;2022-12-18T01:11:17;-12.80;99.90
20380;DHT22;10349;48.666;8.948;2022-12-18T01:13:43;-12.90;99.90
20380;DHT22;10349;48.666;8.948;2022-12-18T01:16:15;-12.80;99.90
20380;DHT22;10349;48.666;8.948;2022-12-18T01:18:41;-12.90;99.90
20380;DHT22;10349;48.666;8.948;2022-12-18T01:21:09;-13.10;99.90
20380;DHT22;10349;48.666;8.948;2022-12-18T01:23:36;-13.20;99.90
20380;DHT22;10349;48.666;8.948;2022-12-18T01:26:13;-13.30;99.90
20380;DHT22;10349;48.666;8.948;2022-12-18T01:28:39;-13.30;99.90
20380;DHT22;10349;48.666;8.948;2022-12-18T01:31:26;-13.20;99.90
20380;DHT22;10349;48.666;8.948;2022-12-18T01:33:54;-13.20;99.90
20380;DHT22;10349;48.666;8.948;2022-12-18T01:36:26;-13.20;99.90
20380;DHT22;10349;48.666;8.948;2022-12-18T01:38:52;-13.30;99.90
20380;DHT22;10349;48.666;8.948;2022-12-18T01:41:22;-13.30;99.90
20380;DHT22;10349;48.666;8.948;2022-12-18T01:43:54;-13.30;99.90
20380;DHT22;10349;48.666;8.948;2022-12-18T01:46:26;-13.30;99.90
20380;DHT22;10349;48.666;8.948;2022-12-18T01:49:00;-13.20;99.90
20380;DHT22;10349;48.666;8.948;2022-12-18T01:51:27;-13.20;99.90
20380;DHT22;10349;48.666;8.948;2022-12-18T01:53:55;-13.20;99.90
20380;DHT22;10349;48.666;8.948;2022-12-18T01:56:21;-13.20;99.90
20380;DHT22;10349;48.666;8.948;2022-12-18T01:59:02;-13.30;99.90
20380;DHT22;10349;48.666;8.948;2022-12-18T02:01:30;-13.30;99.90
20380;DHT22;10349;48.666;8.948;2022-12-18T02:04:24;-13.20;99.90
20380;DHT22;10349;48.666;8.948;2022-12-18T02:09:34;-13.30;99.90
20380;DHT22;10349;48.666;8.948;2022-12-18T02:12:19;-13.30;99.90
20380;DHT22;10349;48.666;8.948;2022-12-18T02:14:58;-13.40;99.90
20380;DHT22;10349;48.666;8.948;2022-12-18T02:25:51;-13.50;99.90
20380;DHT22;10349;48.666;8.948;2022-12-18T02:28:21;-13.60;99.90
20380;DHT22;10349;48.666;8.948;2022-12-18T02:30:50;-13.60;99.90
20380;DHT22;10349;48.666;8.948;2022-12-18T02:33:24;-13.60;99.90
20380;DHT22;10349;48.666;8.948;2022-12-18T02:35:51;-13.60;99.90
20380;DHT22;10349;48.666;8.948;2022-12-18T02:38:19;-13.60;99.90
20380;DHT22;10349;48.666;8.948;2022-12-18T02:40:49;-13.50;99.90
20380;DHT22;10349;48.666;8.948;2022-12-18T02:43:17;-13.40;99.90
20380;DHT22;10349;48.666;8.948;2022-12-18T02:45:53;-13.50;99.90
20380;DHT22;10349;48.666;8.948;2022-12-18T02:48:25;-13.40;99.90
20380;DHT22;10349;48.666;8.948;2022-12-18T02:51:08;-13.40;99.90
20380;DHT22;10349;48.666;8.948;2022-12-18T02:53:43;-13.40;99.90
20380;DHT22;10349;48.666;8.948;2022-12-18T02:59:13;-13.20;99.90
20380;DHT22;10349;48.666;8.948;2022-12-18T03:02:00;-13.10;99.90
20380;DHT22;10349;48.666;8.948;2022-12-18T03:04:55;-13.00;99.90
20380;DHT22;10349;48.666;8.948;2022-12-18T03:07:27;-13.00;99.90
20380;DHT22;10349;48.666;8.948;2022-12-18T03:09:59;-12.90;99.90
20380;DHT22;10349;48.666;8.948;2022-12-18T03:12:35;-12.90;99.90
20380;DHT22;10349;48.666;8.948;2022-12-18T03:15:25;-12.80;99.90
20380;DHT22;10349;48.666;8.948;2022-12-18T03:18:13;-12.80;99.90
20380;DHT22;10349;48.666;8.948;2022-12-18T03:20:43;-12.80;99.90
20380;DHT22;10349;48.666;8.948;2022-12-18T03:23:18;-12.80;99.90
20380;DHT22;10349;48.666;8.948;2022-12-18T03:25:51;-12.70;99.90
20380;DHT22;10349;48.666;8.948;2022-12-18T03:28:21;-12.60;99.90
20380;DHT22;10349;48.666;8.948;2022-12-18T03:30:56;-12.40;99.90
20380;DHT22;10349;48.666;8.948;2022-12-18T03:33:30;-12.50;99.90
20380;DHT22;10349;48.666;8.948;2022-12-18T03:35:58;-12.50;99.90
20380;DHT22;10349;48.666;8.948;2022-12-18T03:38:23;-12.40;99.90
20380;DHT22;10349;48.666;8.948;2022-12-18T03:46:30;-12.20;99.90
20380;DHT22;10349;48.666;8.948;2022-12-18T03:49:02;-12.40;99.90
20380;DHT22;10349;48.666;8.948;2022-12-18T03:51:42;-12.30;99.90
20380;DHT22;10349;48.666;8.948;2022-12-18T03:54:11;-12.20;99.90
20380;DHT22;10349;48.666;8.948;2022-12-18T03:56:45;-12.20;99.90
20380;DHT22;10349;48.666;8.948;2022-12-18T03:59:15;-12.20;99.90
20380;DHT22;10349;48.666;8.948;2022-12-18T04:01:46;-12.20;99.90
20380;DHT22;10349;48.666;8.948;2022-12-18T04:04:14;-12.10;99.90
20380;DHT22;10349;48.666;8.948;2022-12-18T04:06:42;-12.10;99.90
20380;DHT22;10349;48.666;8.948;2022-12-18T04:09:11;-12.00;99.90
20380;DHT22;10349;48.666;8.948;2022-12-18T04:11:41;-11.90;99.90
20380;DHT22;10349;48.666;8.948;2022-12-18T04:14:10;-11.90;99.90
20380;DHT22;10349;48.666;8.948;2022-12-18T04:16:36;-11.80;99.90
20380;DHT22;10349;48.666;8.948;2022-12-18T04:19:04;-11.80;99.90
20380;DHT22;10349;48.666;8.948;2022-12-18T04:21:36;-11.60;99.90
20380;DHT22;10349;48.666;8.948;2022-12-18T04:24:02;-11.70;99.90
20380;DHT22;10349;48.666;8.948;2022-12-18T04:26:29;-11.60;99.90
20380;DHT22;10349;48.666;8.948;2022-12-18T04:29:06;-11.60;99.90
20380;DHT22;10349;48.666;8.948;2022-12-18T04:31:32;-11.60;99.90
20380;DHT22;10349;48.666;8.948;2022-12-18T04:33:58;-11.50;99.90
20380;DHT22;10349;48.666;8.948;2022-12-18T04:36:24;-11.30;99.90
20380;DHT22;10349;48.666;8.948;2022-12-18T04:38:50;-11.20;99.90
20380;DHT22;10349;48.666;8.948;2022-12-18T04:41:16;-11.10;99.90
20380;DHT22;10349;48.666;8.948;2022-12-18T04:43:45;-11.00;99.90
20380;DHT22;10349;48.666;8.948;2022-12-18T04:46:10;-10.90;99.90
20380;DHT22;10349;48.666;8.948;2022-12-18T04:48:37;-10.90;99.90
20380;DHT22;10349;48.666;8.948;2022-12-18T04:51:04;-10.80;99.90
20380;DHT22;10349;48.666;8.948;2022-12-18T04:53:29;-10.80;99.90
20380;DHT22;10349;48.666;8.948;2022-12-18T04:56:12;-10.70;99.90
20380;DHT22;10349;48.666;8.948;2022-12-18T04:58:40;-10.70;99.90
20380;DHT22;10349;48.666;8.948;2022-12-18T05:01:07;-10.80;99.90
20380;DHT22;10349;48.666;8.948;2022-12-18T05:03:33;-10.70;99.90
20380;DHT22;10349;48.666;8.948;2022-12-18T05:05:59;-10.60;99.90
20380;DHT22;10349;48.666;8.948;2022-12-18T05:08:25;-10.60;99.90
20380;DHT22;10349;48.666;8.948;2022-12-18T05:11:06;-10.60;99.90
20380;DHT22;10349;48.666;8.948;2022-12-18T05:13:32;-10.60;99.90
20380;DHT22;10349;48.666;8.948;2022-12-18T05:15:58;-10.60;99.90
20380;DHT22;10349;48.666;8.948;2022-12-18T05:18:25;-10.50;99.90
20380;DHT22;10349;48.666;8.948;2022-12-18T05:20:51;-10.50;99.90
20380;DHT22;10349;48.666;8.948;2022-12-18T05:23:18;-10.40;99.90
20380;DHT22;10349;48.666;8.948;2022-12-18T05:25:50;-10.40;99.90
20380;DHT22;10349;48.666;8.948;2022-12-18T05:28:16;-10.40;99.90
20380;DHT22;10349;48.666;8.948;2022-12-18T05:30:41;-10.40;99.90
20380;DHT22;10349;48.666;8.948;2022-12-18T05:33:07;-10.40;99.90
20380;DHT22;10349;48.666;8.948;2022-12-18T05:35:33;-10.40;99.90
20380;DHT22;10349;48.666;8.948;2022-12-18T05:37:58;-10.30;99.90
20380;DHT22;10349;48.666;8.948;2022-12-18T05:40:24;-10.20;99.90
20380;DHT22;10349;48.666;8.948;2022-12-18T05:42:50;-10.20;99.90
20380;DHT22;10349;48.666;8.948;2022-12-18T05:45:16;-10.20;99.90
20380;DHT22;10349;48.666;8.948;2022-12-18T05:47:41;-10.20;99.90
20380;DHT22;10349;48.666;8.948;2022-12-18T05:50:07;-10.10;99.90
20380;DHT22;10349;48.666;8.948;2022-12-18T05:52:33;-10.10;99.90
20380;DHT22;10349;48.666;8.948;2022-12-18T05:54:58;-10.20;99.90
20380;DHT22;10349;48.666;8.948;2022-12-18T05:57:24;-10.30;99.90
20380;DHT22;10349;48.666;8.948;2022-12-18T05:59:50;-10.40;99.90
20380;DHT22;10349;48.666;8.948;2022-12-18T06:02:15;-10.50;99.90
20380;DHT22;10349;48.666;8.948;2022-12-18T06:04:41;-10.60;99.90
20380;DHT22;10349;48.666;8.948;2022-12-18T06:07:07;-10.60;99.90
20380;DHT22;10349;48.666;8.948;2022-12-18T06:09:33;-10.60;99.90
20380;DHT22;10349;48.666;8.948;2022-12-18T06:11:59;-10.50;99.90
20380;DHT22;10349;48.666;8.948;2022-12-18T06:14:24;-10.50;99.90
20380;DHT22;10349;48.666;8.948;2022-12-18T06:16:51;-10.50;99.90
20380;DHT22;10349;48.666;8.948;2022-12-18T06:19:17;-10.50;99.90
20380;DHT22;10349;48.666;8.948;2022-12-18T06:21:43;-10.50;99.90
20380;DHT22;10349;48.666;8.948;2022-12-18T06:24:09;-10.50;99.90
20380;DHT22;10349;48.666;8.948;2022-12-18T06:26:37;-10.50;99.90
20380;DHT22;10349;48.666;8.948;2022-12-18T06:29:04;-10.40;99.90
20380;DHT22;10349;48.666;8.948;2022-12-18T06:31:30;-10.40;99.90
20380;DHT22;10349;48.666;8.948;2022-12-18T06:33:55;-10.40;99.90
20380;DHT22;10349;48.666;8.948;2022-12-18T06:36:21;-10.40;99.90
20380;DHT22;10349;48.666;8.948;2022-12-18T06:38:47;-10.40;99.90
20380;DHT22;10349;48.666;8.948;2022-12-18T06:41:16;-10.40;99.90
20380;DHT22;10349;48.666;8.948;2022-12-18T06:43:42;-10.40;99.90
20380;DHT22;10349;48.666;8.948;2022-12-18T06:46:08;-10.40;99.90
20380;DHT22;10349;48.666;8.948;2022-12-18T06:48:34;-10.40;99.90
20380;DHT22;10349;48.666;8.948;2022-12-18T06:51:00;-10.50;99.90
20380;DHT22;10349;48.666;8.948;2022-12-18T06:53:27;-10.60;99.90
20380;DHT22;10349;48.666;8.948;2022-12-18T06:55:58;-10.60;99.90
20380;DHT22;10349;48.666;8.948;2022-12-18T06:58:24;-10.70;99.90
20380;DHT22;10349;48.666;8.948;2022-12-18T07:00:50;-10.70;99.90
20380;DHT22;10349;48.666;8.948;2022-12-18T07:03:15;-10.80;99.90
20380;DHT22;10349;48.666;8.948;2022-12-18T07:05:41;-11.00;99.90
20380;DHT22;10349;48.666;8.948;2022-12-18T07:08:06;-11.00;99.90
20380;DHT22;10349;48.666;8.948;2022-12-18T07:10:32;-11.10;99.90
20380;DHT22;10349;48.666;8.948;2022-12-18T07:12:58;-11.30;99.90
20380;DHT22;10349;48.666;8.948;2022-12-18T07:15:23;-11.30;99.90
20380;DHT22;10349;48.666;8.948;2022-12-18T07:17:49;-11.40;99.90
20380;DHT22;10349;48.666;8.948;2022-12-18T07:20:14;-11.30;99.90
20380;DHT22;10349;48.666;8.948;2022-12-18T07:22:40;-11.40;99.90
20380;DHT22;10349;48.666;8.948;2022-12-18T07:25:06;-11.40;99.90
20380;DHT22;10349;48.666;8.948;2022-12-18T07:27:32;-11.40;99.90
20380;DHT22;10349;48.666;8.948;2022-12-18T07:29:58;-11.40;99.90
20380;DHT22;10349;48.666;8.948;2022-12-18T07:32:23;-11.50;99.90
20380;DHT22;10349;48.666;8.948;2022-12-18T07:34:49;-11.50;99.90
20380;DHT22;10349;48.666;8.948;2022-12-18T07:37:15;-11.40;99.90
20380;DHT22;10349;48.666;8.948;2022-12-18T07:39:40;-11.50;99.90
20380;DHT22;10349;48.666;8.948;2022-12-18T07:42:07;-11.50;99.90
20380;DHT22;10349;48.666;8.948;2022-12-18T07:44:51;-11.50;99.90
20380;DHT22;10349;48.666;8.948;2022-12-18T07:47:17;-11.60;99.90
20380;DHT22;10349;48.666;8.948;2022-12-18T07:49:43;-11.60;99.90
20380;DHT22;10349;48.666;8.948;2022-12-18T07:52:08;-11.60;99.90
20380;DHT22;10349;48.666;8.948;2022-12-18T07:54:35;-11.60;99.90
20380;DHT22;10349;48.666;8.948;2022-12-18T07:57:00;-11.60;99.90
20380;DHT22;10349;48.666;8.948;2022-12-18T07:59:26;-11.60;99.90
20380;DHT22;10349;48.666;8.948;2022-12-18T08:01:52;-11.60;99.90
20380;DHT22;10349;48.666;8.948;2022-12-18T08:04:17;-11.60;99.90
20380;DHT22;10349;48.666;8.948;2022-12-18T08:06:43;-11.70;99.90
20380;DHT22;10349;48.666;8.948;2022-12-18T08:09:09;-11.70;99.90
20380;DHT22;10349;48.666;8.948;2022-12-18T08:11:35;-11.70;99.90
20380;DHT22;10349;48.666;8.948;2022-12-18T08:14:01;-11.70;99.90
20380;DHT22;10349;48.666;8.948;2022-12-18T08:16:27;-11.70;99.90
20380;DHT22;10349;48.666;8.948;2022-12-18T08:18:53;-11.60;99.90
20380;DHT22;10349;48.666;8.948;2022-12-18T08:21:22;-11.60;99.90
20380;DHT22;10349;48.666;8.948;2022-12-18T08:23:50;-11.60;99.90
20380;DHT22;10349;48.666;8.948;2022-12-18T08:26:16;-11.60;99.90
20380;DHT22;10349;48.666;8.948;2022-12-18T08:28:42;-11.70;99.90
20380;DHT22;10349;48.666;8.948;2022-12-18T08:31:08;-11.60;99.90
20380;DHT22;10349;48.666;8.948;2022-12-18T08:33:35;-11.60;99.90
20380;DHT22;10349;48.666;8.948;2022-12-18T08:36:02;-11.50;99.90
20380;DHT22;10349;48.666;8.948;2022-12-18T08:38:28;-11.50;99.90
20380;DHT22;10349;48.666;8.948;2022-12-18T08:41:07;-11.40;99.90
20380;DHT22;10349;48.666;8.948;2022-12-18T08:43:33;-11.40;99.90
20380;DHT22;10349;48.666;8.948;2022-12-18T08:46:19;-11.40;99.90
20380;DHT22;10349;48.666;8.948;2022-12-18T08:48:45;-11.30;99.90
20380;DHT22;10349;48.666;8.948;2022-12-18T08:51:11;-11.30;99.90
20380;DHT22;10349;48.666;8.948;2022-12-18T08:53:38;-11.20;99.90
20380;DHT22;10349;48.666;8.948;2022-12-18T08:56:04;-11.20;99.90
20380;DHT22;10349;48.666;8.948;2022-12-18T08:58:30;-11.10;99.90
20380;DHT22;10349;48.666;8.948;2022-12-18T09:01:03;-11.00;99.90
20380;DHT22;10349;48.666;8.948;2022-12-18T09:03:29;-10.90;99.90
20380;DHT22;10349;48.666;8.948;2022-12-18T09:05:55;-10.90;99.90
20380;DHT22;10349;48.666;8.948;2022-12-18T09:08:21;-10.80;99.90
20380;DHT22;10349;48.666;8.948;2022-12-18T09:10:48;-10.70;99.90
20380;DHT22;10349;48.666;8.948;2022-12-18T09:13:15;-10.60;99.90
20380;DHT22;10349;48.666;8.948;2022-12-18T09:15:42;-10.40;99.90
20380;DHT22;10349;48.666;8.948;2022-12-18T09:18:09;-10.40;99.90
20380;DHT22;10349;48.666;8.948;2022-12-18T09:20:36;-10.20;99.90
20380;DHT22;10349;48.666;8.948;2022-12-18T09:23:02;-10.20;99.90
20380;DHT22;10349;48.666;8.948;2022-12-18T09:25:29;-10.10;99.90
20380;DHT22;10349;48.666;8.948;2022-12-18T09:27:59;-10.00;99.90
20380;DHT22;10349;48.666;8.948;2022-12-18T09:30:26;-9.90;99.90
20380;DHT22;10349;48.666;8.948;2022-12-18T09:32:51;-9.80;99.90
20380;DHT22;10349;48.666;8.948;2022-12-18T09:35:17;-9.60;99.90
20380;DHT22;10349;48.666;8.948;2022-12-18T09:37:42;-9.50;99.90
20380;DHT22;10349;48.666;8.948;2022-12-18T09:40:16;-9.30;99.90
20380;DHT22;10349;48.666;8.948;2022-12-18T09:42:47;-9.10;99.90
20380;DHT22;10349;48.666;8.948;2022-12-18T09:45:16;-9.00;99.90
20380;DHT22;10349;48.666;8.948;2022-12-18T09:47:43;-8.80;99.90
20380;DHT22;10349;48.666;8.948;2022-12-18T09:50:37;-8.70;99.90
20380;DHT22;10349;48.666;8.948;2022-12-18T09:53:15;-8.40;99.90
20380;DHT22;10349;48.666;8.948;2022-12-18T09:55:45;-8.20;99.90
20380;DHT22;10349;48.666;8.948;2022-12-18T10:00:37;-7.80;99.90
20380;DHT22;10349;48.666;8.948;2022-12-18T10:03:14;-7.50;99.90
20380;DHT22;10349;48.666;8.948;2022-12-18T10:06:02;-7.30;99.90
20380;DHT22;10349;48.666;8.948;2022-12-18T10:08:51;-7.10;99.90
20380;DHT22;10349;48.666;8.948;2022-12-18T10:11:34;-6.90;99.90
20380;DHT22;10349;48.666;8.948;2022-12-18T10:17:02;-6.40;99.90
20380;DHT22;10349;48.666;8.948;2022-12-18T10:20:10;-6.30;99.90
20380;DHT22;10349;48.666;8.948;2022-12-18T10:28:16;-6.00;99.90
20380;DHT22;10349;48.666;8.948;2022-12-18T10:30:44;-6.00;99.90
20380;DHT22;10349;48.666;8.948;2022-12-18T10:33:22;-6.00;99.90
20380;DHT22;10349;48.666;8.948;2022-12-18T10:35:50;-6.10;99.90
20380;DHT22;10349;48.666;8.948;2022-12-18T10:38:25;-6.20;99.90
20380;DHT22;10349;48.666;8.948;2022-12-18T10:43:44;-6.20;99.90
20380;DHT22;10349;48.666;8.948;2022-12-18T10:46:17;-6.20;99.90
20380;DHT22;10349;48.666;8.948;2022-12-18T10:51:24;-6.00;99.90
20380;DHT22;10349;48.666;8.948;2022-12-18T10:54:06;-6.00;99.90
20380;DHT22;10349;48.666;8.948;2022-12-18T10:56:38;-5.90;99.90
20380;DHT22;10349;48.666;8.948;2022-12-18T10:59:06;-5.70;99.90
20380;DHT22;10349;48.666;8.948;2022-12-18T11:02:23;-5.60;99.90
20380;DHT22;10349;48.666;8.948;2022-12-18T11:04:51;-5.30;99.90
20380;DHT22;10349;48.666;8.948;2022-12-18T11:07:19;-5.20;99.90
20380;DHT22;10349;48.666;8.948;2022-12-18T11:09:59;-5.00;99.90
20380;DHT22;10349;48.666;8.948;2022-12-18T11:12:28;-4.80;99.90
20380;DHT22;10349;48.666;8.948;2022-12-18T11:14:55;-4.70;99.90
20380;DHT22;10349;48.666;8.948;2022-12-18T11:17:31;-4.50;99.90
20380;DHT22;10349;48.666;8.948;2022-12-18T11:20:05;-4.30;99.90
20380;DHT22;10349;48.666;8.948;2022-12-18T11:22:36;-4.10;99.90
20380;DHT22;10349;48.666;8.948;2022-12-18T11:25:17;-3.80;99.90
20380;DHT22;10349;48.666;8.948;2022-12-18T11:27:59;-3.80;99.90
20380;DHT22;10349;48.666;8.948;2022-12-18T11:33:08;-3.60;99.90
20380;DHT22;10349;48.666;8.948;2022-12-18T11:38:26;-3.50;99.90
20380;DHT22;10349;48.666;8.948;2022-12-18T11:43:57;-3.50;99.90
20380;DHT22;10349;48.666;8.948;2022-12-18T11:46:37;-3.60;99.90
20380;DHT22;10349;48.666;8.948;2022-12-18T11:49:13;-3.60;99.90
20380;DHT22;10349;48.666;8.948;2022-12-18T11:52:10;-3.40;99.90
20380;DHT22;10349;48.666;8.948;2022-12-18T11:54:35;-3.40;99.90
20380;DHT22;10349;48.666;8.948;2022-12-18T12:09:00;-3.20;99.90
20380;DHT22;10349;48.666;8.948;2022-12-18T12:14:30;-3.20;99.90
20380;DHT22;10349;48.666;8.948;2022-12-18T12:20:16;-3.10;99.90
20380;DHT22;10349;48.666;8.948;2022-12-18T12:22:52;-3.10;99.90
20380;DHT22;10349;48.666;8.948;2022-12-18T12:25:52;-3.00;99.90
20380;DHT22;10349;48.666;8.948;2022-12-18T12:28:32;-3.00;99.90
20380;DHT22;10349;48.666;8.948;2022-12-18T12:36:53;-2.80;99.90
20380;DHT22;10349;48.666;8.948;2022-12-18T12:39:35;-2.80;99.90
20380;DHT22;10349;48.666;8.948;2022-12-18T12:42:35;-2.80;99.90
20380;DHT22;10349;48.666;8.948;2022-12-18T12:45:51;-2.80;99.90
20380;DHT22;10349;48.666;8.948;2022-12-18T12:48:40;-2.70;99.90
20380;DHT22;10349;48.666;8.948;2022-12-18T12:53:39;-2.60;99.90
20380;DHT22;10349;48.666;8.948;2022-12-18T12:56:08;-2.60;99.90
20380;DHT22;10349;48.666;8.948;2022-12-18T12:58:46;-2.60;99.90
20380;DHT22;10349;48.666;8.948;2022-12-18T13:06:59;-2.60;99.90
20380;DHT22;10349;48.666;8.948;2022-12-18T13:09:31;-2.50;99.90
20380;DHT22;10349;48.666;8.948;2022-12-18T13:12:04;-2.50;99.90
20380;DHT22;10349;48.666;8.948;2022-12-18T13:14:52;-2.50;99.90
20380;DHT22;10349;48.666;8.948;2022-12-18T13:19:50;-2.60;99.90
20380;DHT22;10349;48.666;8.948;2022-12-18T13:22:32;-2.60;99.90
20380;DHT22;10349;48.666;8.948;2022-12-18T13:25:04;-2.60;99.90
20380;DHT22;10349;48.666;8.948;2022-12-18T13:30:42;-2.60;99.90
20380;DHT22;10349;48.666;8.948;2022-12-18T13:35:50;-2.60;99.90
20380;DHT22;10349;48.666;8.948;2022-12-18T13:43:51;-2.60;99.90
20380;DHT22;10349;48.666;8.948;2022-12-18T13:46:45;-2.60;99.90
20380;DHT22;10349;48.666;8.948;2022-12-18T13:51:51;-2.60;99.90
20380;DHT22;10349;48.666;8.948;2022-12-18T13:54:41;-2.70;99.90
20380;DHT22;10349;48.666;8.948;2022-12-18T13:57:31;-2.60;99.90
20380;DHT22;10349;48.666;8.948;2022-12-18T14:00:00;-2.60;99.90
20380;DHT22;10349;48.666;8.948;2022-12-18T14:02:45;-2.60;99.90
20380;DHT22;10349;48.666;8.948;2022-12-18T14:05:29;-2.60;99.90
20380;DHT22;10349;48.666;8.948;2022-12-18T14:08:13;-2.60;99.90
20380;DHT22;10349;48.666;8.948;2022-12-18T14:10:45;-2.70;99.90
20380;DHT22;10349;48.666;8.948;2022-12-18T14:13:27;-2.80;99.90
20380;DHT22;10349;48.666;8.948;2022-12-18T14:15:56;-2.80;99.90
20380;DHT22;10349;48.666;8.948;2022-12-18T14:18:26;-2.80;99.90
20380;DHT22;10349;48.666;8.948;2022-12-18T14:20:59;-2.80;99.90
20380;DHT22;10349;48.666;8.948;2022-12-18T14:23:41;-2.80;99.90
20380;DHT22;10349;48.666;8.948;2022-12-18T14:26:29;-2.90;99.90
20380;DHT22;10349;48.666;8.948;2022-12-18T14:29:00;-2.90;99.90
20380;DHT22;10349;48.666;8.948;2022-12-18T14:31:30;-2.90;99.90
20380;DHT22;10349;48.666;8.948;2022-12-18T14:33:57;-2.90;99.90
20380;DHT22;10349;48.666;8.948;2022-12-18T14:36:25;-3.00;99.90
20380;DHT22;10349;48.666;8.948;2022-12-18T14:38:53;-3.00;99.90
20380;DHT22;10349;48.666;8.948;2022-12-18T14:41:20;-3.00;99.90
20380;DHT22;10349;48.666;8.948;2022-12-18T14:43:49;-3.00;99.90
20380;DHT22;10349;48.666;8.948;2022-12-18T14:48:56;-3.00;99.90
20380;DHT22;10349;48.666;8.948;2022-12-18T14:51:31;-3.00;99.90
20380;DHT22;10349;48.666;8.948;2022-12-18T14:54:03;-3.00;99.90
20380;DHT22;10349;48.666;8.948;2022-12-18T14:56:35;-3.00;99.90
20380;DHT22;10349;48.666;8.948;2022-12-18T14:59:06;-3.00;99.90
20380;DHT22;10349;48.666;8.948;2022-12-18T15:01:44;-3.10;99.90
20380;DHT22;10349;48.666;8.948;2022-12-18T15:07:12;-3.20;99.90
20380;DHT22;10349;48.666;8.948;2022-12-18T15:09:41;-3.20;99.90
20380;DHT22;10349;48.666;8.948;2022-12-18T15:12:33;-3.30;99.90
20380;DHT22;10349;48.666;8.948;2022-12-18T15:14:59;-3.30;99.90
20380;DHT22;10349;48.666;8.948;2022-12-18T15:17:25;-3.30;99.90
20380;DHT22;10349;48.666;8.948;2022-12-18T15:19:53;-3.40;99.90
20380;DHT22;10349;48.666;8.948;2022-12-18T15:22:29;-3.30;99.90
20380;DHT22;10349;48.666;8.948;2022-12-18T15:24:57;-3.30;99.90
20380;DHT22;10349;48.666;8.948;2022-12-18T15:27:34;-3.40;99.90
20380;DHT22;10349;48.666;8.948;2022-12-18T15:32:36;-3.50;99.90
20380;DHT22;10349;48.666;8.948;2022-12-18T15:35:16;-3.60;99.90
20380;DHT22;10349;48.666;8.948;2022-12-18T15:37:42;-3.80;99.90
20380;DHT22;10349;48.666;8.948;2022-12-18T15:40:15;-3.90;99.90
20380;DHT22;10349;48.666;8.948;2022-12-18T15:42:41;-4.00;99.90
20380;DHT22;10349;48.666;8.948;2022-12-18T15:45:26;-4.20;99.90
20380;DHT22;10349;48.666;8.948;2022-12-18T15:47:51;-4.40;99.90
20380;DHT22;10349;48.666;8.948;2022-12-18T15:50:17;-4.60;99.90
20380;DHT22;10349;48.666;8.948;2022-12-18T15:52:45;-4.70;99.90
20380;DHT22;10349;48.666;8.948;2022-12-18T15:55:17;-4.70;99.90
20380;DHT22;10349;48.666;8.948;2022-12-18T15:58:02;-4.80;99.90
20380;DHT22;10349;48.666;8.948;2022-12-18T16:00:28;-4.80;99.90
20380;DHT22;10349;48.666;8.948;2022-12-18T16:02:53;-5.00;99.90
20380;DHT22;10349;48.666;8.948;2022-12-18T16:05:20;-5.00;99.90
20380;DHT22;10349;48.666;8.948;2022-12-18T16:07:47;-5.20;99.90
20380;DHT22;10349;48.666;8.948;2022-12-18T16:10:13;-5.20;99.90
20380;DHT22;10349;48.666;8.948;2022-12-18T16:12:39;-5.30;99.90
20380;DHT22;10349;48.666;8.948;2022-12-18T16:15:06;-5.50;99.90
20380;DHT22;10349;48.666;8.948;2022-12-18T16:17:32;-5.50;99.90
20380;DHT22;10349;48.666;8.948;2022-12-18T16:19:58;-5.60;99.90
20380;DHT22;10349;48.666;8.948;2022-12-18T16:22:26;-5.60;99.90
20380;DHT22;10349;48.666;8.948;2022-12-18T16:24:53;-5.60;99.90
20380;DHT22;10349;48.666;8.948;2022-12-18T16:27:19;-5.60;99.90
20380;DHT22;10349;48.666;8.948;2022-12-18T16:29:45;-5.60;99.90
20380;DHT22;10349;48.666;8.948;2022-12-18T16:32:16;-5.70;99.90
20380;DHT22;10349;48.666;8.948;2022-12-18T16:34:42;-5.70;99.90
20380;DHT22;10349;48.666;8.948;2022-12-18T16:37:10;-5.70;99.90
20380;DHT22;10349;48.666;8.948;2022-12-18T16:39:37;-5.70;99.90
20380;DHT22;10349;48.666;8.948;2022-12-18T16:42:11;-5.70;99.90
20380;DHT22;10349;48.666;8.948;2022-12-18T16:44:42;-5.70;99.90
20380;DHT22;10349;48.666;8.948;2022-12-18T16:47:08;-5.70;99.90
20380;DHT22;10349;48.666;8.948;2022-12-18T16:49:34;-5.70;99.90
20380;DHT22;10349;48.666;8.948;2022-12-18T16:52:00;-5.70;99.90
20380;DHT22;10349;48.666;8.948;2022-12-18T16:54:25;-5.70;99.90
20380;DHT22;10349;48.666;8.948;2022-12-18T16:56:55;-5.70;99.90
20380;DHT22;10349;48.666;8.948;2022-12-18T16:59:24;-5.60;99.90
20380;DHT22;10349;48.666;8.948;2022-12-18T17:01:51;-5.60;99.90
20380;DHT22;10349;48.666;8.948;2022-12-18T17:04:18;-5.60;99.90
20380;DHT22;10349;48.666;8.948;2022-12-18T17:06:45;-5.60;99.90
20380;DHT22;10349;48.666;8.948;2022-12-18T17:09:18;-5.60;99.90
20380;DHT22;10349;48.666;8.948;2022-12-18T17:11:51;-5.60;99.90
20380;DHT22;10349;48.666;8.948;2022-12-18T17:14:19;-5.60;99.90
20380;DHT22;10349;48.666;8.948;2022-12-18T17:16:46;-5.50;99.90
20380;DHT22;10349;48.666;8.948;2022-12-18T17:19:12;-5.50;99.90
20380;DHT22;10349;48.666;8.948;2022-12-18T17:21:38;-5.40;99.90
20380;DHT22;10349;48.666;8.948;2022-12-18T17:24:04;-5.50;99.90